Time,TemperatureF,DewpointF,PressureIn,WindDirection,WindDirectionDegrees,WindSpeedMPH,WindSpeedGustMPH,Humidity,HourlyPrecipIn,Conditions,Clouds,dailyrainin,SoftwareType,DateUTC
2013-02-09 00:00:00,45.7,31.3,30.05,NW,315,2.0,2.0,57,0.00,,,0.00,WUHU216HW,2013-02-09 05:00:00,
2013-02-09 00:05:00,45.7,31.3,30.05,NW,315,2.0,2.0,57,0.00,,,0.00,WUHU216HW,2013-02-09 05:05:00,
2013-02-09 01:00:00,43.9,30.1,30.06,NW,315,6.0,6.0,58,0.00,,,0.00,WUHU216HW,2013-02-09 06:00:00,
2013-02-09 01:05:00,43.9,30.1,30.06,NW,315,6.0,6.0,58,0.00,,,0.00,WUHU216HW,2013-02-09 06:05:00,
2013-02-09 01:30:00,42.7,30.2,30.07,WNW,293,0.7,0.7,61,0.00,,,0.00,WUHU216HW,2013-02-09 06:30:00,
2013-02-09 01:35:00,42.7,30.2,30.07,WNW,293,0.7,0.7,61,0.00,,,0.00,WUHU216HW,2013-02-09 06:35:00,
2013-02-09 02:00:00,42.1,29.6,30.07,North,0,1.1,1.1,61,0.00,,,0.00,WUHU216HW,2013-02-09 07:00:00,
2013-02-09 02:05:00,42.1,29.6,30.07,North,0,1.1,1.1,61,0.00,,,0.00,WUHU216HW,2013-02-09 07:05:00,
2013-02-09 02:30:00,40.7,29.1,30.07,West,270,0.4,0.4,63,0.00,,,0.00,WUHU216HW,2013-02-09 07:30:00,
2013-02-09 02:35:00,40.7,29.1,30.07,West,270,0.4,0.4,63,0.00,,,0.00,WUHU216HW,2013-02-09 07:35:00,
2013-02-09 03:00:00,39.4,28.5,30.06,NW,315,0.4,0.4,65,0.00,,,0.00,WUHU216HW,2013-02-09 08:00:00,
2013-02-09 03:05:00,39.4,28.5,30.06,NW,315,0.4,0.4,65,0.00,,,0.00,WUHU216HW,2013-02-09 08:05:00,
2013-02-09 03:30:00,39.8,28.9,30.07,NNW,338,1.8,1.8,65,0.00,,,0.00,WUHU216HW,2013-02-09 08:30:00,
2013-02-09 03:35:00,39.8,28.9,30.07,NNW,338,1.8,1.8,65,0.00,,,0.00,WUHU216HW,2013-02-09 08:35:00,
2013-02-09 04:00:00,39.1,28.5,30.09,NW,315,0.4,0.4,66,0.00,,,0.00,WUHU216HW,2013-02-09 09:00:00,
2013-02-09 04:05:00,39.1,28.5,30.09,NW,315,0.4,0.4,66,0.00,,,0.00,WUHU216HW,2013-02-09 09:05:00,
2013-02-09 04:30:00,38.5,28.4,30.09,NW,315,2.5,2.5,67,0.00,,,0.00,WUHU216HW,2013-02-09 09:30:00,
2013-02-09 04:35:00,38.5,28.4,30.09,NW,315,2.5,2.5,67,0.00,,,0.00,WUHU216HW,2013-02-09 09:35:00,
2013-02-09 05:00:00,37.6,28.0,30.11,West,270,0.4,0.4,68,0.00,,,0.00,WUHU216HW,2013-02-09 10:00:00,
2013-02-09 05:05:00,37.6,28.0,30.11,West,270,0.4,0.4,68,0.00,,,0.00,WUHU216HW,2013-02-09 10:05:00,
2013-02-09 05:30:00,37.1,27.9,30.12,NNW,338,2.0,2.0,69,0.00,,,0.00,WUHU216HW,2013-02-09 10:30:00,
2013-02-09 05:35:00,37.1,27.9,30.12,NNW,338,2.0,2.0,69,0.00,,,0.00,WUHU216HW,2013-02-09 10:35:00,
2013-02-09 06:00:00,37.1,27.9,30.14,South,180,2.0,2.0,69,0.00,,,0.00,WUHU216HW,2013-02-09 11:00:00,
2013-02-09 06:05:00,37.1,27.9,30.14,South,180,2.0,2.0,69,0.00,,,0.00,WUHU216HW,2013-02-09 11:05:00,
2013-02-09 06:30:00,36.4,27.2,30.15,WSW,248,0.2,0.2,69,0.00,,,0.00,WUHU216HW,2013-02-09 11:30:00,
2013-02-09 06:35:00,36.4,27.2,30.15,WSW,248,0.2,0.2,69,0.00,,,0.00,WUHU216HW,2013-02-09 11:35:00,
2013-02-09 07:00:00,34.6,26.1,30.17,West,270,0.2,0.2,71,0.00,,,0.00,WUHU216HW,2013-02-09 12:00:00,
2013-02-09 07:05:00,34.6,26.1,30.17,West,270,0.2,0.2,71,0.00,,,0.00,WUHU216HW,2013-02-09 12:05:00,
2013-02-09 07:30:00,34.2,26.0,30.19,NW,315,0.0,0.0,72,0.00,,,0.00,WUHU216HW,2013-02-09 12:30:00,
2013-02-09 07:35:00,34.2,26.0,30.19,NW,315,0.0,0.0,72,0.00,,,0.00,WUHU216HW,2013-02-09 12:35:00,
2013-02-09 07:59:00,33.8,26.3,30.20,NW,315,0.2,0.2,74,0.00,,,0.00,WUHU216HW,2013-02-09 12:59:00,
2013-02-09 08:00:00,33.8,26.3,30.20,NW,315,0.2,0.2,74,0.00,,,0.00,WUHU216HW,2013-02-09 13:00:00,
2013-02-09 08:05:00,33.8,26.3,30.20,NW,315,0.2,0.2,74,0.00,,,0.00,WUHU216HW,2013-02-09 13:05:00,
2013-02-09 08:30:00,38.0,29.4,30.22,WNW,293,0.7,0.7,71,0.00,,,0.00,WUHU216HW,2013-02-09 13:30:00,
2013-02-09 08:35:00,38.0,29.4,30.22,WNW,293,0.7,0.7,71,0.00,,,0.00,WUHU216HW,2013-02-09 13:35:00,
2013-02-09 09:00:00,40.9,29.6,30.24,West,270,1.3,1.3,64,0.00,,,0.00,WUHU216HW,2013-02-09 14:00:00,
2013-02-09 09:05:00,40.9,29.6,30.24,West,270,1.3,1.3,64,0.00,,,0.00,WUHU216HW,2013-02-09 14:05:00,
2013-02-09 09:30:00,42.8,28.2,30.25,NNW,338,4.0,4.0,56,0.00,,,0.00,WUHU216HW,2013-02-09 14:30:00,
2013-02-09 09:35:00,42.8,28.2,30.25,NNW,338,4.0,4.0,56,0.00,,,0.00,WUHU216HW,2013-02-09 14:35:00,
2013-02-09 10:00:00,44.8,26.8,30.25,North,0,3.1,3.1,49,0.00,,,0.00,WUHU216HW,2013-02-09 15:00:00,
2013-02-09 10:05:00,44.8,26.8,30.25,North,0,3.1,3.1,49,0.00,,,0.00,WUHU216HW,2013-02-09 15:05:00,
2013-02-09 10:30:00,46.4,26.6,30.26,NNW,338,2.0,2.0,46,0.00,,,0.00,WUHU216HW,2013-02-09 15:30:00,
2013-02-09 10:35:00,46.4,26.6,30.26,NNW,338,2.0,2.0,46,0.00,,,0.00,WUHU216HW,2013-02-09 15:35:00,
2013-02-09 11:00:00,47.5,24.4,30.27,North,0,0.2,0.2,40,0.00,,,0.00,WUHU216HW,2013-02-09 16:00:00,
2013-02-09 11:05:00,47.5,24.4,30.27,North,0,0.2,0.2,40,0.00,,,0.00,WUHU216HW,2013-02-09 16:05:00,
2013-02-09 12:30:00,51.5,25.9,30.24,NW,315,6.9,6.9,37,0.00,,,0.00,WUHU216HW,2013-02-09 17:30:00,
2013-02-09 12:35:00,51.5,25.9,30.24,NW,315,6.9,6.9,37,0.00,,,0.00,WUHU216HW,2013-02-09 17:35:00,
2013-02-09 13:00:00,53.1,26.0,30.24,NNW,338,0.4,0.4,35,0.00,,,0.00,WUHU216HW,2013-02-09 18:00:00,
2013-02-09 13:05:00,53.1,26.0,30.24,NNW,338,0.4,0.4,35,0.00,,,0.00,WUHU216HW,2013-02-09 18:05:00,
2013-02-09 15:00:00,56.0,23.0,30.22,NW,315,0.9,0.9,28,0.00,,,0.00,WUHU216HW,2013-02-09 20:00:00,
2013-02-09 15:05:00,56.0,23.0,30.22,NW,315,0.9,0.9,28,0.00,,,0.00,WUHU216HW,2013-02-09 20:05:00,
2013-02-09 15:30:00,56.2,23.2,30.22,North,0,1.1,1.1,28,0.00,,,0.00,WUHU216HW,2013-02-09 20:30:00,
2013-02-09 15:35:00,56.2,23.2,30.22,North,0,1.1,1.1,28,0.00,,,0.00,WUHU216HW,2013-02-09 20:35:00,
2013-02-09 16:00:00,56.5,22.6,30.22,NNW,338,0.4,0.4,27,0.00,,,0.00,WUHU216HW,2013-02-09 21:00:00,
2013-02-09 16:05:00,56.5,22.6,30.22,NNW,338,0.4,0.4,27,0.00,,,0.00,WUHU216HW,2013-02-09 21:05:00,
2013-02-09 16:30:00,55.8,20.1,30.23,North,0,0.4,0.4,25,0.00,,,0.00,WUHU216HW,2013-02-09 21:30:00,
2013-02-09 16:35:00,55.8,20.1,30.23,North,0,0.4,0.4,25,0.00,,,0.00,WUHU216HW,2013-02-09 21:35:00,
2013-02-09 17:00:00,55.3,21.5,30.24,NE,45,2.9,2.9,27,0.00,,,0.00,WUHU216HW,2013-02-09 22:00:00,
2013-02-09 17:05:00,55.3,21.5,30.24,NE,45,2.9,2.9,27,0.00,,,0.00,WUHU216HW,2013-02-09 22:05:00,
2013-02-09 17:30:00,53.6,24.4,30.24,NE,45,2.0,2.0,32,0.00,,,0.00,WUHU216HW,2013-02-09 22:30:00,
2013-02-09 17:35:00,53.6,24.4,30.24,NE,45,2.0,2.0,32,0.00,,,0.00,WUHU216HW,2013-02-09 22:35:00,
2013-02-09 18:30:00,46.4,25.0,30.26,West,270,0.2,0.2,43,0.00,,,0.00,WUHU216HW,2013-02-09 23:30:00,
2013-02-09 18:31:00,46.4,25.0,30.26,West,270,0.2,0.2,43,0.00,,,0.00,WUHU216HW,2013-02-09 23:31:00,
2013-02-09 18:37:00,46.4,25.0,30.26,West,270,0.2,0.2,43,0.00,,,0.00,WUHU216HW,2013-02-09 23:37:00,
2013-02-09 19:00:00,43.4,24.4,30.27,West,270,0.0,0.0,47,0.00,,,0.00,WUHU216HW,2013-02-10 00:00:00,
2013-02-09 19:05:00,43.4,24.4,30.27,West,270,0.0,0.0,47,0.00,,,0.00,WUHU216HW,2013-02-10 00:05:00,
2013-02-09 19:30:00,41.2,23.9,30.29,WSW,248,0.0,0.0,50,0.00,,,0.00,WUHU216HW,2013-02-10 00:30:00,
2013-02-09 19:35:00,41.2,23.9,30.29,WSW,248,0.0,0.0,50,0.00,,,0.00,WUHU216HW,2013-02-10 00:35:00,
2013-02-09 20:00:00,39.1,23.7,30.29,WSW,248,0.0,0.0,54,0.00,,,0.00,WUHU216HW,2013-02-10 01:00:00,
2013-02-09 20:05:00,39.1,23.7,30.29,WSW,248,0.0,0.0,54,0.00,,,0.00,WUHU216HW,2013-02-10 01:05:00,
2013-02-09 20:30:00,37.8,24.3,30.30,WSW,248,0.0,0.0,58,0.00,,,0.00,WUHU216HW,2013-02-10 01:30:00,
2013-02-09 20:35:00,37.8,24.3,30.30,WSW,248,0.0,0.0,58,0.00,,,0.00,WUHU216HW,2013-02-10 01:35:00,
2013-02-09 21:00:00,36.7,23.8,30.32,WSW,248,0.0,0.0,59,0.00,,,0.00,WUHU216HW,2013-02-10 02:00:00,
2013-02-09 21:05:00,36.7,23.8,30.32,WSW,248,0.0,0.0,59,0.00,,,0.00,WUHU216HW,2013-02-10 02:05:00,
2013-02-09 21:30:00,35.5,23.4,30.33,WSW,248,0.0,0.0,61,0.00,,,0.00,WUHU216HW,2013-02-10 02:30:00,
2013-02-09 21:35:00,35.5,23.4,30.33,WSW,248,0.0,0.0,61,0.00,,,0.00,WUHU216HW,2013-02-10 02:35:00,
2013-02-09 23:00:00,32.4,22.7,30.35,WSW,248,0.0,0.0,67,0.00,,,0.00,WUHU216HW,2013-02-10 04:00:00,
2013-02-09 23:05:00,32.4,22.7,30.35,WSW,248,0.0,0.0,67,0.00,,,0.00,WUHU216HW,2013-02-10 04:05:00,